createdAt,value
2018-07-09T00:01:55.849Z,74.40
2018-07-09T00:04:24.196Z,74.60
2018-07-09T00:06:52.565Z,74.70
2018-07-09T00:09:20.909Z,74.80
2018-07-09T00:11:50.095Z,74.90
2018-07-09T00:14:18.418Z,74.90
2018-07-09T00:16:46.821Z,75.20
2018-07-09T00:19:15.165Z,75.30
2018-07-09T00:21:43.501Z,75.20
2018-07-09T00:24:11.832Z,75.40
2018-07-09T00:26:40.164Z,75.40
2018-07-09T00:29:08.469Z,75.30
2018-07-09T00:31:37.274Z,75.30
2018-07-09T00:34:05.617Z,75.70
2018-07-09T00:36:33.989Z,75.80
2018-07-09T00:39:02.925Z,75.90
2018-07-09T00:41:31.372Z,76.10
2018-07-09T00:43:59.729Z,76.30
2018-07-09T00:46:28.133Z,76.50
2018-07-09T00:48:56.494Z,76.60
2018-07-09T00:51:24.880Z,76.70
2018-07-09T00:53:53.253Z,76.90
2018-07-09T00:56:21.622Z,77.10
2018-07-09T00:58:49.964Z,76.90
2018-07-09T01:01:18.312Z,77.10
2018-07-09T01:03:46.629Z,77.10
2018-07-09T01:06:14.999Z,77.30
2018-07-09T01:08:43.348Z,77.40
2018-07-09T01:11:22.829Z,77.50
2018-07-09T01:13:51.162Z,77.40
2018-07-09T01:16:19.493Z,77.50
2018-07-09T01:18:47.804Z,77.60
2018-07-09T01:21:16.200Z,77.60
2018-07-09T01:23:44.517Z,77.40
2018-07-09T01:26:12.850Z,77.30
2018-07-09T01:28:41.981Z,77.40
2018-07-09T01:31:10.324Z,77.50
2018-07-09T01:33:38.652Z,77.30
2018-07-09T01:36:07.097Z,77.60
2018-07-09T01:38:35.433Z,77.60
2018-07-09T01:41:03.757Z,77.60
2018-07-09T01:43:32.106Z,77.60
2018-07-09T01:46:00.450Z,77.50
2018-07-09T01:48:28.888Z,77.60
2018-07-09T01:50:57.242Z,77.60
2018-07-09T01:53:25.601Z,77.90
2018-07-09T01:55:53.936Z,78.00
2018-07-09T01:58:22.313Z,78.30
2018-07-09T02:00:50.690Z,78.30
2018-07-09T02:03:19.078Z,78.40
2018-07-09T02:05:47.421Z,78.40
2018-07-09T02:08:15.766Z,78.50
2018-07-09T02:10:44.109Z,78.50
2018-07-09T02:13:12.468Z,78.60
2018-07-09T02:15:40.837Z,78.70
2018-07-09T02:18:09.188Z,78.90
2018-07-09T02:20:37.627Z,79.00
2018-07-09T02:23:06.141Z,79.20
2018-07-09T02:25:34.495Z,79.20
2018-07-09T02:28:02.858Z,79.20
2018-07-09T02:30:31.229Z,79.50
2018-07-09T02:32:59.625Z,79.60
2018-07-09T02:35:27.973Z,79.70
2018-07-09T02:37:56.326Z,79.80
2018-07-09T02:40:24.674Z,79.70
2018-07-09T02:45:21.081Z,79.60
2018-07-09T02:47:49.421Z,79.50
2018-07-09T02:50:17.757Z,79.40
2018-07-09T02:52:46.127Z,79.40
2018-07-09T02:55:14.493Z,79.50
2018-07-09T02:57:42.876Z,79.70
2018-07-09T03:00:11.210Z,79.50
2018-07-09T03:02:39.581Z,79.60
2018-07-09T03:05:07.938Z,79.40
2018-07-09T03:07:36.289Z,79.60
2018-07-09T03:10:04.626Z,79.80
2018-07-09T03:12:32.945Z,80.10
2018-07-09T03:15:01.289Z,80.00
2018-07-09T03:17:29.648Z,80.00
2018-07-09T03:19:57.996Z,79.80
2018-07-09T03:22:26.329Z,79.70
2018-07-09T03:24:54.709Z,79.90
2018-07-09T03:27:23.056Z,80.00
2018-07-09T03:29:51.449Z,80.10
2018-07-09T03:32:20.065Z,80.30
2018-07-09T03:34:48.446Z,80.40
2018-07-09T03:39:44.997Z,80.90
2018-07-09T03:42:13.329Z,81.10
2018-07-09T03:44:41.840Z,81.60
2018-07-09T03:47:10.229Z,82.20
2018-07-09T03:49:38.574Z,82.30
2018-07-09T03:52:06.931Z,82.20
2018-07-09T03:54:35.281Z,82.20
2018-07-09T03:57:03.625Z,82.20
2018-07-09T03:59:31.965Z,82.30
2018-07-09T04:02:00.322Z,82.40
2018-07-09T04:04:28.661Z,82.50
2018-07-09T04:06:57.425Z,82.60
2018-07-09T04:09:26.045Z,82.70
2018-07-09T04:11:54.400Z,82.80
2018-07-09T04:14:22.748Z,83.00
2018-07-09T04:16:51.060Z,82.90
2018-07-09T04:19:19.408Z,83.00
2018-07-09T04:21:47.755Z,83.20
2018-07-09T04:24:16.076Z,83.40
2018-07-09T04:26:44.397Z,83.40
2018-07-09T04:29:12.738Z,83.40
2018-07-09T04:31:41.096Z,83.10
2018-07-09T04:34:09.459Z,83.30
2018-07-09T04:36:37.745Z,83.60
2018-07-09T04:39:07.108Z,83.80
2018-07-09T04:41:35.697Z,83.70
2018-07-09T04:44:04.068Z,83.60
2018-07-09T04:46:32.397Z,83.50
2018-07-09T04:49:01.153Z,83.50
2018-07-09T04:51:29.519Z,83.40
2018-07-09T04:53:58.052Z,83.00
2018-07-09T04:56:26.940Z,82.80
2018-07-09T04:58:55.258Z,83.40
2018-07-09T05:01:23.620Z,82.80
2018-07-09T05:03:52.000Z,83.40
2018-07-09T05:06:20.357Z,83.50
2018-07-09T05:08:48.681Z,83.50
2018-07-09T05:11:17.022Z,83.40
2018-07-09T05:13:45.340Z,83.40
2018-07-09T05:16:13.677Z,82.90
2018-07-09T05:18:41.993Z,82.60
2018-07-09T05:21:10.353Z,82.00
2018-07-09T05:23:38.668Z,82.10
2018-07-09T05:26:07.089Z,81.90
2018-07-09T05:28:35.405Z,81.20
2018-07-09T05:31:03.741Z,81.00
2018-07-09T05:33:32.065Z,80.30
2018-07-09T05:36:00.393Z,79.60
2018-07-09T05:38:28.744Z,79.00
2018-07-09T05:40:57.226Z,78.60
2018-07-09T05:43:25.733Z,78.20
2018-07-09T05:45:54.132Z,77.40
2018-07-09T05:48:22.548Z,76.50
2018-07-09T05:50:50.933Z,76.20
2018-07-09T05:53:19.319Z,76.20
2018-07-09T05:55:47.697Z,75.80
2018-07-09T05:58:16.042Z,74.90
2018-07-09T06:00:44.405Z,74.10
2018-07-09T06:03:12.749Z,73.90
2018-07-09T06:05:41.121Z,73.60
2018-07-09T06:08:09.478Z,73.40
2018-07-09T06:10:37.875Z,72.60
2018-07-09T06:13:06.216Z,71.20
2018-07-09T06:15:34.592Z,71.10
2018-07-09T06:18:02.962Z,71.10
2018-07-09T06:20:31.353Z,70.30
2018-07-09T06:22:59.704Z,69.90
2018-07-09T06:25:28.088Z,69.90
2018-07-09T06:27:56.432Z,69.00
2018-07-09T06:30:24.816Z,68.90
2018-07-09T06:32:53.148Z,68.80
2018-07-09T06:35:21.924Z,68.40
2018-07-09T06:37:50.308Z,68.30
2018-07-09T06:40:18.653Z,68.10
2018-07-09T06:42:47.007Z,67.50
2018-07-09T06:45:15.361Z,67.30
2018-07-09T06:47:43.720Z,67.10
2018-07-09T06:50:12.097Z,66.10
2018-07-09T06:52:40.484Z,65.40
2018-07-09T06:55:08.821Z,65.30
2018-07-09T06:57:37.189Z,65.30
2018-07-09T07:00:05.741Z,66.00
2018-07-09T07:02:34.161Z,66.00
2018-07-09T07:05:02.497Z,66.10
2018-07-09T07:07:30.845Z,66.00
2018-07-09T07:09:59.169Z,65.10
2018-07-09T07:12:27.562Z,64.20
2018-07-09T07:14:55.906Z,65.40
2018-07-09T07:17:24.365Z,65.50
2018-07-09T07:19:52.694Z,65.40
2018-07-09T07:22:21.309Z,64.10
2018-07-09T07:24:49.648Z,63.20
2018-07-09T07:27:18.122Z,63.20
2018-07-09T07:29:46.608Z,64.20
2018-07-09T07:32:14.957Z,64.10
2018-07-09T07:34:43.299Z,63.70
2018-07-09T07:37:11.640Z,62.60
2018-07-09T07:39:39.985Z,62.60
2018-07-09T07:42:08.328Z,62.00
2018-07-09T07:44:36.677Z,62.40
2018-07-09T07:47:05.176Z,62.10
2018-07-09T07:49:33.493Z,61.70
2018-07-09T07:52:01.954Z,61.60
2018-07-09T07:54:30.417Z,62.30
2018-07-09T07:56:58.788Z,61.50
2018-07-09T07:59:27.136Z,60.50
2018-07-09T08:01:55.518Z,60.80
2018-07-09T08:04:24.216Z,61.00
2018-07-09T08:06:52.590Z,60.80
2018-07-09T08:09:21.032Z,62.00
2018-07-09T08:11:49.393Z,60.50
2018-07-09T08:14:17.729Z,60.40
2018-07-09T08:16:46.081Z,60.20
2018-07-09T08:19:14.444Z,60.20
2018-07-09T08:21:42.840Z,58.50
2018-07-09T08:24:11.201Z,58.70
2018-07-09T08:26:39.542Z,57.20
2018-07-09T08:29:07.937Z,58.30
2018-07-09T08:31:36.320Z,58.00
2018-07-09T08:34:04.710Z,58.30
2018-07-09T08:36:33.178Z,57.30
2018-07-09T08:39:01.593Z,58.80
2018-07-09T08:41:29.945Z,57.30
2018-07-09T08:43:58.466Z,58.10
2018-07-09T08:46:26.808Z,58.20
2018-07-09T08:48:55.153Z,58.00
2018-07-09T08:51:23.569Z,58.50
2018-07-09T08:53:51.970Z,59.00
2018-07-09T08:56:20.313Z,58.50
2018-07-09T08:58:48.985Z,58.10
2018-07-09T09:01:17.345Z,57.60
2018-07-09T09:03:45.766Z,57.40
2018-07-09T09:06:14.117Z,58.00
2018-07-09T09:08:42.604Z,57.30
2018-07-09T09:11:10.958Z,57.10
2018-07-09T09:13:39.350Z,56.80
2018-07-09T09:16:07.761Z,57.70
2018-07-09T09:18:36.316Z,56.90
2018-07-09T09:21:04.681Z,57.30
2018-07-09T09:23:33.101Z,57.10
2018-07-09T09:26:01.593Z,57.80
2018-07-09T09:28:29.977Z,57.40
2018-07-09T09:30:58.429Z,57.40
2018-07-09T09:33:26.801Z,56.80
2018-07-09T09:35:55.189Z,56.50
2018-07-09T09:38:23.590Z,56.30
2018-07-09T09:40:51.926Z,56.30
2018-07-09T09:43:20.365Z,56.10
2018-07-09T09:45:48.729Z,56.00
2018-07-09T09:48:17.087Z,55.70
2018-07-09T09:50:45.420Z,55.20
2018-07-09T09:53:13.750Z,55.30
2018-07-09T09:55:42.142Z,56.10
2018-07-09T09:58:10.480Z,55.90
2018-07-09T10:00:44.079Z,56.40
2018-07-09T10:03:12.524Z,57.40
2018-07-09T10:05:40.841Z,55.90
2018-07-09T10:08:09.195Z,57.00
2018-07-09T10:10:37.601Z,57.20
2018-07-09T10:13:06.376Z,57.30
2018-07-09T10:15:34.748Z,57.30
2018-07-09T10:18:03.109Z,56.90
2018-07-09T10:22:59.636Z,56.70
2018-07-09T10:25:28.000Z,58.00
2018-07-09T10:27:59.348Z,57.00
2018-07-09T10:30:27.751Z,56.80
2018-07-09T10:32:56.040Z,56.50
2018-07-09T10:35:24.368Z,56.60
2018-07-09T10:37:52.725Z,56.80
2018-07-09T10:40:21.149Z,56.60
2018-07-09T10:42:49.479Z,57.30
2018-07-09T10:45:17.812Z,57.10
2018-07-09T10:47:46.149Z,57.50
2018-07-09T10:50:14.567Z,57.40
2018-07-09T10:52:42.905Z,57.60
2018-07-09T10:55:11.324Z,57.50
2018-07-09T10:57:39.693Z,58.30
2018-07-09T11:00:08.093Z,58.40
2018-07-09T11:02:36.417Z,57.90
2018-07-09T11:05:05.604Z,57.80
2018-07-09T11:07:34.353Z,57.60
2018-07-09T11:10:02.719Z,58.30
2018-07-09T11:12:31.054Z,57.60
2018-07-09T11:14:59.495Z,58.30
2018-07-09T11:17:27.834Z,57.90
2018-07-09T11:19:56.173Z,57.50
2018-07-09T11:22:24.506Z,57.80
2018-07-09T11:24:52.868Z,57.50
2018-07-09T11:27:21.189Z,56.80
2018-07-09T11:29:50.301Z,56.60
2018-07-09T11:32:18.645Z,57.90
2018-07-09T11:34:46.993Z,57.70
2018-07-09T11:37:15.358Z,58.10
2018-07-09T11:39:43.892Z,58.90
2018-07-09T11:42:12.296Z,58.20
2018-07-09T11:44:40.623Z,57.60
2018-07-09T11:47:08.949Z,57.20
2018-07-09T11:49:37.309Z,58.10
2018-07-09T11:52:05.917Z,59.00
2018-07-09T11:54:34.265Z,58.30
2018-07-09T11:57:02.701Z,58.30
2018-07-09T11:59:31.309Z,58.20
2018-07-09T12:01:59.752Z,58.10
2018-07-09T12:04:28.030Z,58.00
2018-07-09T12:06:56.410Z,58.30
2018-07-09T12:09:24.786Z,58.30
2018-07-09T12:11:53.142Z,58.30
2018-07-09T12:14:21.469Z,59.60
2018-07-09T12:16:49.808Z,58.50
2018-07-09T12:19:18.164Z,58.70
2018-07-09T12:21:46.736Z,58.20
2018-07-09T12:24:15.038Z,57.80
2018-07-09T12:26:43.381Z,58.50
2018-07-09T12:29:11.908Z,58.60
2018-07-09T12:31:40.082Z,59.00
2018-07-09T12:34:08.412Z,58.60
2018-07-09T12:36:36.743Z,58.40
2018-07-09T12:39:06.269Z,59.30
2018-07-09T12:41:34.618Z,59.40
2018-07-09T12:44:02.953Z,59.00
2018-07-09T12:46:31.837Z,59.20
2018-07-09T12:49:01.245Z,59.90
2018-07-09T12:51:29.635Z,59.90
2018-07-09T12:53:59.434Z,60.40
2018-07-09T12:56:28.225Z,59.70
2018-07-09T12:58:56.635Z,60.50
2018-07-09T13:01:25.052Z,59.60
2018-07-09T13:03:53.421Z,60.10
2018-07-09T13:06:21.821Z,59.40
2018-07-09T13:08:50.205Z,60.10
2018-07-09T13:13:49.632Z,59.10
2018-07-09T13:16:18.087Z,58.90
2018-07-09T13:18:46.481Z,58.70
2018-07-09T13:21:14.883Z,59.30
2018-07-09T13:23:43.228Z,59.10
2018-07-09T13:26:11.621Z,59.30
2018-07-09T13:28:40.100Z,59.90
2018-07-09T13:31:08.492Z,59.60
2018-07-09T13:33:36.928Z,59.50
2018-07-09T13:36:05.460Z,58.70
2018-07-09T13:38:34.061Z,59.30
2018-07-09T13:41:02.895Z,58.50
2018-07-09T13:43:31.393Z,59.30
2018-07-09T13:45:59.913Z,58.80
2018-07-09T13:48:28.289Z,59.30
2018-07-09T13:50:56.809Z,59.60
2018-07-09T13:53:25.511Z,59.80
2018-07-09T13:55:53.873Z,59.60
2018-07-09T13:58:25.206Z,59.30
2018-07-09T14:00:53.569Z,59.80
2018-07-09T14:03:21.921Z,59.20
2018-07-09T14:05:50.241Z,58.10
2018-07-09T14:08:18.573Z,57.70
2018-07-09T14:10:46.907Z,57.90
2018-07-09T14:13:15.237Z,58.00
2018-07-09T14:15:43.570Z,58.50
2018-07-09T14:18:11.893Z,58.40
2018-07-09T14:20:44.329Z,58.20
2018-07-09T14:23:13.954Z,58.90
2018-07-09T14:25:42.544Z,59.00
2018-07-09T14:28:11.089Z,58.80
2018-07-09T14:30:39.435Z,59.00
2018-07-09T14:33:08.080Z,59.40
2018-07-09T14:35:36.424Z,59.80
2018-07-09T14:38:05.493Z,59.80
2018-07-09T14:40:33.817Z,60.00
2018-07-09T14:43:02.165Z,60.20
2018-07-09T14:45:30.497Z,60.30
2018-07-09T14:47:58.849Z,60.70
2018-07-09T14:50:27.164Z,61.00
2018-07-09T14:52:55.521Z,61.00
2018-07-09T14:55:23.841Z,60.80
2018-07-09T14:57:52.192Z,60.70
2018-07-09T15:00:20.547Z,61.00
2018-07-09T15:02:48.873Z,61.10
2018-07-09T15:05:17.225Z,61.30
2018-07-09T15:07:45.585Z,61.10
2018-07-09T15:10:13.921Z,61.00
2018-07-09T15:15:10.350Z,60.90
2018-07-09T15:17:38.773Z,60.60
2018-07-09T15:20:07.185Z,60.80
2018-07-09T15:22:35.518Z,60.70
2018-07-09T15:25:03.893Z,60.60
2018-07-09T15:27:32.369Z,60.90
2018-07-09T15:30:00.745Z,60.60
2018-07-09T15:32:30.201Z,60.80
2018-07-09T15:34:58.688Z,61.10
2018-07-09T15:37:27.328Z,61.00
2018-07-09T15:39:55.821Z,61.20
2018-07-09T15:42:24.226Z,61.40
2018-07-09T15:44:52.656Z,61.70
2018-07-09T15:47:20.996Z,61.90
2018-07-09T15:49:49.306Z,61.30
2018-07-09T15:52:18.200Z,62.00
2018-07-09T15:54:46.537Z,62.00
2018-07-09T15:57:14.943Z,62.10
2018-07-09T16:02:11.326Z,62.50
2018-07-09T16:04:39.657Z,62.40
2018-07-09T16:07:08.011Z,62.50
2018-07-09T16:09:36.391Z,63.20
2018-07-09T16:12:04.746Z,63.00
2018-07-09T16:14:33.100Z,62.90
2018-07-09T16:17:01.448Z,63.30
2018-07-09T16:19:29.812Z,63.20
2018-07-09T16:21:58.136Z,63.60
2018-07-09T16:24:26.476Z,63.60
2018-07-09T16:26:54.811Z,63.80
2018-07-09T16:29:23.372Z,63.90
2018-07-09T16:31:51.489Z,64.20
2018-07-09T16:34:19.845Z,64.30
2018-07-09T16:36:48.193Z,64.40
2018-07-09T16:39:16.601Z,64.70
2018-07-09T16:41:44.922Z,64.10
2018-07-09T16:44:13.273Z,64.60
2018-07-09T16:46:41.654Z,64.40
2018-07-09T16:49:10.034Z,64.70
2018-07-09T16:51:38.376Z,64.70
2018-07-09T16:54:06.753Z,65.10
2018-07-09T16:56:35.085Z,65.50
2018-07-09T16:59:03.443Z,65.60
2018-07-09T17:01:31.789Z,65.80
2018-07-09T17:04:00.240Z,66.00
2018-07-09T17:06:28.565Z,67.10
2018-07-09T17:08:56.902Z,66.90
2018-07-09T17:11:25.270Z,67.20
2018-07-09T17:13:53.737Z,67.40
2018-07-09T17:16:22.121Z,67.70
2018-07-09T17:18:50.557Z,67.80
2018-07-09T17:21:18.952Z,68.00
2018-07-09T17:23:47.317Z,67.80
2018-07-09T17:26:15.663Z,68.10
2018-07-09T17:28:44.001Z,67.00
2018-07-09T17:31:12.477Z,66.60
2018-07-09T17:33:40.806Z,66.70
2018-07-09T17:36:09.158Z,66.90
2018-07-09T17:38:37.584Z,66.50
2018-07-09T17:41:06.438Z,66.50
2018-07-09T17:43:34.775Z,66.90
2018-07-09T17:46:03.143Z,67.10
2018-07-09T17:48:31.533Z,67.00
2018-07-09T17:50:59.912Z,66.90
2018-07-09T17:53:28.285Z,67.20
2018-07-09T17:55:56.694Z,67.50
2018-07-09T17:58:25.069Z,66.60
2018-07-09T18:00:53.422Z,66.30
2018-07-09T18:03:21.813Z,66.30
2018-07-09T18:05:50.236Z,66.30
2018-07-09T18:08:18.561Z,66.60
2018-07-09T18:10:46.974Z,66.80
2018-07-09T18:13:15.337Z,66.90
2018-07-09T18:15:43.749Z,67.10
2018-07-09T18:18:12.077Z,66.90
2018-07-09T18:20:40.489Z,67.10
2018-07-09T18:23:08.824Z,67.10
2018-07-09T18:25:37.409Z,67.30
2018-07-09T18:28:05.845Z,67.40
2018-07-09T18:30:34.236Z,67.60
2018-07-09T18:33:02.575Z,67.80
2018-07-09T18:35:31.048Z,68.00
2018-07-09T18:37:59.329Z,68.10
2018-07-09T18:40:27.741Z,68.10
2018-07-09T18:42:56.141Z,68.40
2018-07-09T18:45:24.505Z,68.60
2018-07-09T18:47:55.955Z,68.60
2018-07-09T18:50:24.313Z,68.60
2018-07-09T18:52:53.313Z,68.90
2018-07-09T18:55:21.710Z,69.20
2018-07-09T18:57:50.077Z,69.40
2018-07-09T19:00:18.448Z,69.40
2018-07-09T19:02:46.788Z,69.90
2018-07-09T19:05:15.214Z,70.20
2018-07-09T19:10:11.744Z,71.80
2018-07-09T19:12:40.341Z,72.90
2018-07-09T19:15:09.205Z,72.80
2018-07-09T19:17:59.386Z,73.00
2018-07-09T19:20:39.209Z,72.60
2018-07-09T19:23:07.364Z,72.20
2018-07-09T19:25:35.694Z,72.90
2018-07-09T19:28:03.916Z,72.90
2018-07-09T19:30:31.218Z,72.80
2018-07-09T19:32:58.485Z,73.00
2018-07-09T19:35:25.960Z,73.40
2018-07-09T19:37:53.604Z,73.60
2018-07-09T19:40:20.505Z,73.80
2018-07-09T19:42:47.753Z,74.20
2018-07-09T19:45:15.074Z,74.30
2018-07-09T19:47:42.368Z,74.30
2018-07-09T19:50:09.604Z,74.40
2018-07-09T19:52:36.857Z,74.60
2018-07-09T19:55:04.129Z,74.90
2018-07-09T19:57:31.415Z,75.00
2018-07-09T19:59:58.673Z,75.20
2018-07-09T20:02:25.920Z,75.50
2018-07-09T20:04:53.184Z,75.50
2018-07-09T20:07:20.473Z,75.60
2018-07-09T20:09:53.306Z,75.80
2018-07-09T20:14:58.968Z,76.40
2018-07-09T20:17:29.585Z,76.70
2018-07-09T20:19:56.857Z,76.90
2018-07-09T20:22:24.100Z,77.10
2018-07-09T20:24:51.370Z,77.40
2018-07-09T20:27:18.616Z,77.40
2018-07-09T20:29:45.901Z,77.60
2018-07-09T20:32:13.148Z,77.70
2018-07-09T20:34:40.402Z,77.80
2018-07-09T20:37:07.681Z,77.70
2018-07-09T20:39:34.929Z,77.90
2018-07-09T20:42:02.413Z,78.30
2018-07-09T20:44:29.669Z,78.30
2018-07-09T20:46:56.942Z,78.20
2018-07-09T20:49:24.209Z,78.40
2018-07-09T20:51:51.490Z,78.40
2018-07-09T20:54:18.753Z,78.50
2018-07-09T20:56:46.013Z,78.60
2018-07-09T20:59:13.320Z,78.70
2018-07-09T21:01:46.940Z,79.00
2018-07-09T21:04:19.809Z,79.30
2018-07-09T21:06:47.035Z,79.70
2018-07-09T21:09:14.299Z,79.70
2018-07-09T21:11:41.721Z,79.70
2018-07-09T21:14:08.978Z,80.00
2018-07-09T21:16:36.240Z,79.80
2018-07-09T21:19:03.485Z,79.90
2018-07-09T21:21:31.253Z,80.20
2018-07-09T21:23:59.012Z,80.40
2018-07-09T21:26:26.442Z,80.70
2018-07-09T21:28:53.776Z,80.70
2018-07-09T21:31:21.037Z,80.90
2018-07-09T21:33:48.360Z,81.10
2018-07-09T21:36:15.626Z,80.80
2018-07-09T21:38:43.093Z,80.60
2018-07-09T21:41:10.897Z,80.50
2018-07-09T21:43:38.221Z,80.50
2018-07-09T21:46:05.446Z,80.50
2018-07-09T21:48:33.077Z,81.00
2018-07-09T21:51:00.317Z,81.20
2018-07-09T21:53:28.288Z,81.60
2018-07-09T21:55:55.800Z,81.90
2018-07-09T21:58:23.880Z,82.50
2018-07-09T22:00:51.279Z,82.40
2018-07-09T22:03:18.549Z,82.10
2018-07-09T22:05:45.832Z,82.10
2018-07-09T22:08:13.093Z,82.20
2018-07-09T22:10:40.358Z,82.10
2018-07-09T22:13:07.645Z,81.80
2018-07-09T22:15:34.900Z,81.90
2018-07-09T22:18:02.165Z,81.80
2018-07-09T22:20:29.481Z,82.20
2018-07-09T22:22:56.745Z,81.90
2018-07-09T22:25:23.993Z,81.40
2018-07-09T22:27:51.259Z,81.60
2018-07-09T22:30:26.913Z,81.30
2018-07-09T22:32:55.256Z,81.30
2018-07-09T22:35:23.613Z,81.30
2018-07-09T22:37:52.132Z,81.40
2018-07-09T22:40:20.872Z,81.30
2018-07-09T22:42:49.237Z,81.00
2018-07-09T22:45:17.585Z,80.90
2018-07-09T22:47:45.956Z,81.20
2018-07-09T22:50:14.368Z,81.50
2018-07-09T22:52:42.742Z,81.50
2018-07-09T22:55:22.300Z,81.70
2018-07-09T22:57:50.688Z,81.40
2018-07-09T23:00:19.972Z,81.50
2018-07-09T23:03:25.165Z,81.50
2018-07-09T23:05:53.549Z,81.80
2018-07-09T23:08:21.912Z,81.90
2018-07-09T23:11:26.672Z,81.90
2018-07-09T23:16:38.257Z,81.70
2018-07-09T23:19:18.750Z,81.50
2018-07-09T23:21:59.237Z,81.50
2018-07-09T23:24:26.944Z,81.20
2018-07-09T23:26:54.872Z,81.30
2018-07-09T23:29:22.121Z,81.20
2018-07-09T23:31:49.693Z,80.70
2018-07-09T23:34:17.766Z,80.50
2018-07-09T23:36:45.065Z,80.20
2018-07-09T23:39:12.647Z,80.10
2018-07-09T23:41:39.913Z,80.30
2018-07-09T23:44:07.289Z,80.10
2018-07-09T23:46:34.557Z,80.30
2018-07-09T23:49:01.933Z,80.80
2018-07-09T23:51:29.185Z,80.90
2018-07-09T23:53:56.448Z,81.10
2018-07-09T23:56:37.148Z,80.90
